• Join FlightAware (Why Join?)
  • Login
  • US Flag 
08:01AM EST


 

Airport Tracker/Info


-or-


 

Live Flight TrackerFlight Track Log ✈ ASQ5685 ✈ 27-Sep-2013 ✈ KATL - KIAD

Flight Track Log - Related Links

Times and Time Zones

All times are in EDT time to prevent confusion due to time zone crossing. See the ASQ5685 flight status page for this flight to view local times or setup timezone preferences in your user account.

Time Position Orientation Groundspeed Altitude Reporting Facility
EDT Latitude Longitude Course Direction KTS MPH feet Rate Location/Type
10:15AM 33.6333 -84.3500 65° Northeast 204 235 3,000  Level Atlanta TRACON
10:16AM 33.6333 -84.2833 90° East 247 284 5,400 2,400 Climbing Atlanta TRACON
10:17AM 33.8592 -84.1635 54° Northeast  Level Estimated
10:17AM 33.6333 -84.1833 90° East 266 306 7,900  Level Atlanta TRACON
10:18AM 33.8618 -84.0379 89° East  Level FlightAware Approximate
10:18AM 33.6628 -84.0639 73° East 276 318 11,000  Level Atlanta Center
10:19AM 33.9365 -83.9503 53° Northeast  Level Estimated
10:19AM 33.7192 -83.9914 47° Northeast 286 329 12,500  Level Atlanta Center
10:20AM 33.9812 -83.8367 65° Northeast  Level FlightAware Approximate
10:20AM 33.7794 -83.9114 48° Northeast 312 359 13,400  Level Atlanta Center
10:21AM 33.8442 -83.8286 47° Northeast 330 380 14,400 1,080 Climbing Atlanta Center
10:22AM 33.9128 -83.7408 47° Northeast 348 400 15,600 1,200 Climbing Atlanta Center
10:23AM 33.9794 -83.6356 53° Northeast 359 413 16,800 1,080 Climbing Atlanta Center
10:24AM 34.0394 -83.5400 53° Northeast 359 413 17,800 960 Climbing Atlanta Center
10:25AM 34.1017 -83.4442 52° Northeast 359 413 18,800 960 Climbing Atlanta Center
10:26AM 34.1639 -83.3433 53° Northeast 364 419 19,800 1,020 Climbing Atlanta Center
10:27AM 34.2217 -83.2450 55° Northeast 364 419 20,900 900 Climbing Atlanta Center
10:28AM 34.2878 -83.1489 50° Northeast 364 419 21,600 600 Climbing Atlanta Center
10:29AM 34.3475 -83.0425 56° Northeast 364 419 22,200 600 Climbing Atlanta Center
10:30AM 34.4133 -82.9433 51° Northeast 374 430 22,800 600 Climbing Atlanta Center
10:31AM 34.4772 -82.8369 54° Northeast 382 440 23,500 600 Climbing Atlanta Center
10:32AM 34.5408 -82.7325 54° Northeast 389 448 24,100 540 Climbing Atlanta Center
10:33AM 34.6044 -82.6408 50° Northeast 389 448 24,600 600 Climbing Atlanta Center
10:34AM 34.6636 -82.5361 55° Northeast 382 440 25,300 660 Climbing Atlanta Center
10:35AM 34.7292 -82.4314 53° Northeast 387 445 26,000 660 Climbing Atlanta Center
10:36AM 34.7944 -82.3239 53° Northeast 387 445 26,700 660 Climbing Atlanta Center
10:37AM 34.8556 -82.2214 54° Northeast 387 445 27,400 600 Climbing Atlanta Center
10:38AM 34.9269 -82.1083 52° Northeast 387 445 28,000 540 Climbing Atlanta Center
10:39AM 34.9900 -82.0031 54° Northeast 380 437 28,500 1,500 Climbing Atlanta Center
10:40AM 35.0447 -81.9103 54° Northeast 380 437 31,000 480 Climbing Atlanta Center
10:41AM 35.1031 -81.7969 58° Northeast 386 444 29,500 -480 Descending Atlanta Center
10:42AM 35.1594 -81.6889 57° Northeast 381 438 30,100 600 Climbing Atlanta Center
10:43AM 35.2181 -81.5831 56° Northeast 381 438 30,700 420 Climbing Atlanta Center
10:44AM 35.2764 -81.4744 57° Northeast 375 432 31,000 120 Climbing Atlanta Center
10:45AM 35.3322 -81.3606 59° Northeast 383 441 31,000  Level Atlanta Center
10:46AM 35.3903 -81.2492 57° Northeast 383 441 31,000  Level Atlanta Center
10:47AM 35.4503 -81.1325 58° Northeast 396 456 31,000  Level Atlanta Center
10:48AM 35.5119 -81.0153 57° Northeast 396 456 31,000  Level Atlanta Center
10:49AM 35.5717 -80.9008 57° Northeast 396 456 31,000  Level Atlanta Center
10:50AM 35.6333 -80.7811 58° Northeast 402 463 31,000  Level Atlanta Center
10:53AM 35.7800 -80.4950 58° Northeast 403 464 31,000  Level Washington Center
10:54AM 35.8392 -80.3783 58° Northeast 403 464 31,000  Level Washington Center
10:55AM 35.9003 -80.2589 58° Northeast 403 464 31,000  Level Washington Center
10:56AM 35.9611 -80.1394 58° Northeast 403 464 31,000  Level Washington Center
10:57AM 36.0217 -80.0247 57° Northeast 398 458 31,000  Level Washington Center
10:58AM 36.0867 -79.9075 56° Northeast 403 464 31,000  Level Washington Center
10:59AM 36.1531 -79.7953 54° Northeast 403 464 31,000  Level Washington Center
11:00AM 36.2181 -79.6728 57° Northeast 413 475 31,000 -360 Level Washington Center
11:01AM 36.2844 -79.5603 54° Northeast 408 470 30,400 -720 Descending Washington Center
11:02AM 36.3508 -79.4425 55° Northeast 414 476 29,600 -720 Descending Washington Center
11:03AM 36.4086 -79.3317 57° Northeast 414 476 29,000 -600 Descending Washington Center
11:04AM 36.4728 -79.2133 56° Northeast 414 476 28,500 -480 Descending Washington Center
11:05AM 36.5406 -79.1028 53° Northeast 414 476 28,100 -480 Descending Washington Center
11:06AM 36.6067 -78.9842 55° Northeast 409 471 27,600 -1,200 Descending Washington Center
11:07AM 36.6772 -78.8500 57° Northeast 409 471 25,800 -1,320 Descending Washington Center
11:08AM 36.7431 -78.7308 55° Northeast 414 476 25,000 -420 Descending Washington Center
11:09AM 36.8086 -78.6117 55° Northeast 414 476 25,000  Level Washington Center
11:10AM 36.8675 -78.5047 55° Northeast 409 471 25,000  Level Washington Center
11:11AM 36.9375 -78.3750 56° Northeast 409 471 25,000  Level Washington Center
11:12AM 36.9983 -78.2653 55° Northeast 414 476 25,000 -240 Level Washington Center
11:13AM 37.0964 -78.1672 39° Northeast 399 459 24,600 -600 Descending Washington Center
11:14AM 37.1917 -78.1000 29° Northeast 388 447 23,900 -720 Descending Washington Center
11:15AM 37.2911 -78.0381 26° Northeast 388 447 23,200 -660 Descending Washington Center
11:16AM 37.3906 -77.9706 28° Northeast 394 453 22,600 -600 Descending Washington Center
11:17AM 37.4897 -77.9056 27° Northeast 400 460 22,000 -360 Descending Washington Center
11:18AM 37.5911 -77.8406 27° Northeast 400 460 22,000 -120 Level Washington Center
11:19AM 37.6903 -77.7753 28° Northeast 400 460 21,800 -1,380 Descending Washington Center
11:20AM 37.7875 -77.7097 28° Northeast 400 460 19,300 -2,400 Descending Washington Center
11:21AM 37.8825 -77.6439 29° Northeast 394 453 17,000 -2,400 Descending Washington Center
11:22AM 37.9753 -77.5833 27° Northeast 389 448 14,600 -2,280 Descending Washington Center
11:23AM 38.0533 -77.5325 27° Northeast 364 419 12,600 -1,860 Descending Washington Center
11:24AM 38.1356 -77.4792 27° Northeast 343 395 10,800 -1,320 Descending Washington Center
11:25AM 38.2092 -77.4308 27° Northeast 311 358 10,000 -420 Descending Washington Center
11:26AM 38.2764 -77.3928 24° Northeast 278 320 10,000 -420 Level Washington Center
11:27AM 38.3467 -77.4369 334° Northwest 252 290 9,200 -1,200 Descending Washington Center
11:28AM 38.4236 -77.4469 354° North 265 305 7,700 -1,620 Descending Washington Center
11:29AM 38.4989 -77.4461 360° North 265 305 6,100 -1,440 Descending Washington Center
11:30AM 38.5697 -77.4450 North 265 305 4,900 -1,200 Descending Washington Center
11:31AM 38.6364 -77.4414 North 253 291 3,700 -1,020 Descending Washington Center
11:32AM 38.7072 -77.4433 359° North 245 282 2,900 -720 Descending Washington Center
11:33AM 38.8000 -77.4333 North 240 276 2,200 -600 Descending Potomac TRACON
11:34AM 38.8667 -77.4333 360° North 198 228 1,600 -780 Descending Potomac TRACON
11:35AM 38.9000 -77.4333 360° North 149 171 800 -900 Descending Potomac TRACON